createdAt,value
2017-08-06T00:00:52.680Z,12.87
2017-08-06T00:01:53.286Z,12.93
2017-08-06T00:02:53.895Z,12.97
2017-08-06T00:03:54.492Z,12.87
2017-08-06T00:04:55.085Z,12.94
2017-08-06T00:05:55.695Z,12.95
2017-08-06T00:06:56.291Z,12.97
2017-08-06T00:07:56.906Z,12.98
2017-08-06T00:08:57.504Z,12.97
2017-08-06T00:09:58.106Z,12.98
2017-08-06T00:10:58.715Z,12.95
2017-08-06T00:11:59.312Z,12.98
2017-08-06T00:12:59.913Z,12.98
2017-08-06T00:14:00.540Z,12.97
2017-08-06T00:15:01.164Z,12.94
2017-08-06T00:16:01.772Z,13.01
2017-08-06T00:17:02.390Z,12.97
2017-08-06T00:18:03.010Z,12.98
2017-08-06T00:19:03.642Z,12.90
2017-08-06T00:20:04.272Z,13.02
2017-08-06T00:21:04.905Z,12.97
2017-08-06T00:22:05.539Z,12.95
2017-08-06T00:23:06.148Z,12.93
2017-08-06T00:24:06.750Z,12.87
2017-08-06T00:25:07.348Z,12.93
2017-08-06T00:26:07.970Z,12.90
2017-08-06T00:27:08.563Z,12.87
2017-08-06T00:28:09.172Z,12.85
2017-08-06T00:29:09.781Z,12.83
2017-08-06T00:30:10.374Z,12.83
2017-08-06T00:31:10.985Z,12.77
2017-08-06T00:32:11.579Z,12.77
2017-08-06T00:33:12.199Z,12.79
2017-08-06T00:34:12.795Z,12.75
2017-08-06T00:35:13.413Z,12.72
2017-08-06T00:36:14.047Z,12.71
2017-08-06T00:37:14.649Z,12.67
2017-08-06T00:38:15.250Z,12.68
2017-08-06T00:39:15.849Z,12.68
2017-08-06T00:40:16.443Z,12.76
2017-08-06T00:41:17.049Z,12.72
2017-08-06T00:42:17.665Z,12.72
2017-08-06T00:43:18.270Z,12.62
2017-08-06T00:44:18.887Z,12.61
2017-08-06T00:45:19.478Z,12.64
2017-08-06T00:46:20.080Z,12.64
2017-08-06T00:47:20.697Z,12.64
2017-08-06T00:48:21.303Z,12.64
2017-08-06T00:49:21.925Z,12.53
2017-08-06T00:50:22.556Z,12.55
2017-08-06T00:51:23.166Z,12.52
2017-08-06T00:52:23.776Z,12.47
2017-08-06T00:53:24.387Z,12.50
2017-08-06T00:54:25.019Z,12.50
2017-08-06T00:55:25.639Z,12.47
2017-08-06T00:56:26.250Z,12.47
2017-08-06T00:57:26.855Z,12.39
2017-08-06T00:58:27.466Z,12.47
2017-08-06T00:59:28.082Z,12.47
2017-08-06T01:00:28.696Z,12.43
2017-08-06T01:01:29.322Z,12.37
2017-08-06T01:02:29.928Z,12.39
2017-08-06T01:03:30.535Z,12.42
2017-08-06T01:04:31.165Z,12.44
2017-08-06T01:05:31.763Z,12.25
2017-08-06T01:06:32.380Z,12.32
2017-08-06T01:07:33.004Z,12.31
2017-08-06T01:08:33.638Z,12.28
2017-08-06T01:09:34.234Z,12.31
2017-08-06T01:10:34.840Z,12.34
2017-08-06T01:11:35.435Z,12.34
2017-08-06T01:12:36.042Z,12.32
2017-08-06T01:13:36.650Z,12.27
2017-08-06T01:14:37.264Z,12.25
2017-08-06T01:15:37.885Z,12.34
2017-08-06T01:16:38.481Z,12.28
2017-08-06T01:17:39.077Z,12.28
2017-08-06T01:18:39.684Z,12.35
2017-08-06T01:19:40.308Z,12.27
2017-08-06T01:20:40.927Z,12.27
2017-08-06T01:21:41.529Z,12.27
2017-08-06T01:22:42.139Z,12.31
2017-08-06T01:23:42.737Z,12.31
2017-08-06T01:24:43.351Z,12.29
2017-08-06T01:25:43.963Z,12.35
2017-08-06T01:26:44.580Z,12.32
2017-08-06T01:27:45.199Z,12.28
2017-08-06T01:28:45.816Z,12.28
2017-08-06T01:29:46.433Z,12.31
2017-08-06T01:30:47.058Z,12.31
2017-08-06T01:31:47.650Z,12.29
2017-08-06T01:32:48.260Z,12.19
2017-08-06T01:33:48.864Z,12.27
2017-08-06T01:34:49.474Z,12.27
2017-08-06T01:35:50.090Z,12.34
2017-08-06T01:36:50.709Z,12.31
2017-08-06T01:37:51.322Z,12.32
2017-08-06T01:38:51.936Z,12.32
2017-08-06T01:39:52.528Z,12.29
2017-08-06T01:40:53.135Z,12.25
2017-08-06T01:41:53.749Z,12.22
2017-08-06T01:42:54.356Z,12.19
2017-08-06T01:43:54.973Z,12.16
2017-08-06T01:44:55.585Z,12.16
2017-08-06T01:45:56.202Z,12.09
2017-08-06T01:46:56.826Z,12.13
2017-08-06T01:47:57.422Z,12.09
2017-08-06T01:48:58.028Z,12.13
2017-08-06T01:49:58.650Z,12.16
2017-08-06T01:50:59.261Z,12.14
2017-08-06T01:51:59.872Z,12.13
2017-08-06T01:53:00.475Z,12.16
2017-08-06T01:54:01.092Z,12.16
2017-08-06T01:55:01.721Z,12.14
2017-08-06T01:56:02.332Z,12.06
2017-08-06T01:57:02.952Z,12.11
2017-08-06T01:58:03.562Z,12.06
2017-08-06T01:59:04.170Z,12.03
2017-08-06T02:00:04.795Z,12.06
2017-08-06T02:01:05.410Z,11.95
2017-08-06T02:02:06.025Z,11.95
2017-08-06T02:03:06.620Z,11.91
2017-08-06T02:04:07.232Z,12.03
2017-08-06T02:05:07.831Z,12.04
2017-08-06T02:06:08.447Z,11.95
2017-08-06T02:07:09.055Z,11.93
2017-08-06T02:08:09.659Z,11.91
2017-08-06T02:09:10.267Z,11.85
2017-08-06T02:10:10.863Z,11.85
2017-08-06T02:11:11.470Z,11.84
2017-08-06T02:12:12.087Z,11.84
2017-08-06T02:13:12.714Z,11.91
2017-08-06T02:14:13.329Z,11.95
2017-08-06T02:15:13.928Z,11.87
2017-08-06T02:16:14.530Z,11.98
2017-08-06T02:17:15.145Z,11.88
2017-08-06T02:18:15.757Z,11.87
2017-08-06T02:19:16.368Z,11.76
2017-08-06T02:20:16.961Z,11.85
2017-08-06T02:21:17.574Z,11.88
2017-08-06T02:22:18.202Z,11.85
2017-08-06T02:23:18.815Z,11.80
2017-08-06T02:24:19.430Z,11.81
2017-08-06T02:25:20.028Z,11.88
2017-08-06T02:26:20.647Z,11.73
2017-08-06T02:27:21.268Z,11.85
2017-08-06T02:28:21.895Z,11.75
2017-08-06T02:29:22.523Z,11.87
2017-08-06T02:30:23.145Z,11.75
2017-08-06T02:31:23.757Z,11.77
2017-08-06T02:32:24.368Z,11.77
2017-08-06T02:33:24.985Z,11.65
2017-08-06T02:34:25.601Z,11.66
2017-08-06T02:35:26.227Z,11.75
2017-08-06T02:36:26.841Z,11.70
2017-08-06T02:37:27.456Z,11.69
2017-08-06T02:38:28.061Z,11.72
2017-08-06T02:39:28.656Z,11.67
2017-08-06T02:40:29.264Z,11.57
2017-08-06T02:41:29.864Z,11.62
2017-08-06T02:42:30.458Z,11.58
2017-08-06T02:43:31.066Z,11.62
2017-08-06T02:44:31.696Z,11.66
2017-08-06T02:45:32.306Z,11.58
2017-08-06T02:46:32.923Z,11.54
2017-08-06T02:47:33.530Z,11.50
2017-08-06T02:48:34.150Z,11.45
2017-08-06T02:49:34.763Z,11.47
2017-08-06T02:50:35.387Z,11.48
2017-08-06T02:51:36.002Z,11.44
2017-08-06T02:52:36.621Z,11.40
2017-08-06T02:53:37.239Z,11.50
2017-08-06T02:54:37.868Z,11.48
2017-08-06T02:55:38.503Z,11.50
2017-08-06T02:56:39.119Z,11.50
2017-08-06T02:57:39.726Z,11.48
2017-08-06T02:58:40.334Z,11.47
2017-08-06T02:59:40.951Z,11.55
2017-08-06T03:00:41.575Z,11.47
2017-08-06T03:01:42.193Z,11.40
2017-08-06T03:02:42.789Z,11.50
2017-08-06T03:03:43.398Z,11.42
2017-08-06T03:04:44.019Z,11.44
2017-08-06T03:05:44.628Z,11.42
2017-08-06T03:06:45.225Z,11.54
2017-08-06T03:07:45.833Z,11.51
2017-08-06T03:08:46.447Z,11.55
2017-08-06T03:09:47.064Z,11.47
2017-08-06T03:10:47.662Z,11.51
2017-08-06T03:11:48.274Z,11.51
2017-08-06T03:12:48.901Z,11.50
2017-08-06T03:13:49.520Z,11.54
2017-08-06T03:14:50.134Z,11.54
2017-08-06T03:15:50.732Z,11.54
2017-08-06T03:16:51.331Z,11.62
2017-08-06T03:17:51.932Z,11.54
2017-08-06T03:18:52.531Z,11.59
2017-08-06T03:19:53.134Z,11.58
2017-08-06T03:20:53.748Z,11.63
2017-08-06T03:21:54.362Z,11.57
2017-08-06T03:22:54.964Z,11.65
2017-08-06T03:23:55.585Z,11.59
2017-08-06T03:24:56.205Z,11.54
2017-08-06T03:25:56.821Z,11.58
2017-08-06T03:26:57.432Z,11.57
2017-08-06T03:27:58.039Z,11.57
2017-08-06T03:28:58.663Z,11.66
2017-08-06T03:29:59.259Z,11.67
2017-08-06T03:30:59.866Z,11.54
2017-08-06T03:32:00.479Z,11.65
2017-08-06T03:33:01.096Z,11.63
2017-08-06T03:34:01.707Z,11.58
2017-08-06T03:35:02.321Z,11.58
2017-08-06T03:36:02.940Z,11.55
2017-08-06T03:37:03.554Z,11.58
2017-08-06T03:38:04.161Z,11.51
2017-08-06T03:39:04.774Z,11.47
2017-08-06T03:40:05.393Z,11.57
2017-08-06T03:41:06.017Z,11.51
2017-08-06T03:42:06.630Z,11.47
2017-08-06T03:43:07.245Z,11.54
2017-08-06T03:44:07.848Z,11.51
2017-08-06T03:45:08.451Z,11.44
2017-08-06T03:46:09.058Z,11.45
2017-08-06T03:47:09.687Z,11.51
2017-08-06T03:48:10.293Z,11.48
2017-08-06T03:49:10.894Z,11.52
2017-08-06T03:50:11.521Z,11.55
2017-08-06T03:51:12.122Z,11.50
2017-08-06T03:52:12.727Z,11.51
2017-08-06T03:53:13.336Z,11.55
2017-08-06T03:54:13.953Z,11.57
2017-08-06T03:55:14.566Z,11.54
2017-08-06T03:56:15.187Z,11.62
2017-08-06T03:57:15.789Z,11.50
2017-08-06T03:58:16.412Z,11.66
2017-08-06T03:59:17.020Z,11.55
2017-08-06T04:00:17.647Z,11.54
2017-08-06T04:01:18.265Z,11.63
2017-08-06T04:02:18.862Z,11.62
2017-08-06T04:03:19.478Z,11.62
2017-08-06T04:04:20.090Z,11.58
2017-08-06T04:05:20.686Z,11.62
2017-08-06T04:06:21.287Z,11.58
2017-08-06T04:07:21.885Z,11.58
2017-08-06T04:08:22.505Z,11.59
2017-08-06T04:09:23.135Z,11.65
2017-08-06T04:10:23.733Z,11.58
2017-08-06T04:11:24.350Z,11.66
2017-08-06T04:12:24.968Z,11.65
2017-08-06T04:13:25.578Z,11.62
2017-08-06T04:14:26.220Z,11.63
2017-08-06T04:15:26.820Z,11.63
2017-08-06T04:16:27.428Z,11.67
2017-08-06T04:17:28.050Z,11.62
2017-08-06T04:18:28.656Z,11.62
2017-08-06T04:19:29.258Z,11.57
2017-08-06T04:20:29.887Z,11.67
2017-08-06T04:21:30.496Z,11.50
2017-08-06T04:22:31.118Z,11.55
2017-08-06T04:23:31.736Z,11.54
2017-08-06T04:24:32.342Z,11.47
2017-08-06T04:25:32.945Z,11.50
2017-08-06T04:26:33.544Z,11.48
2017-08-06T04:27:34.155Z,11.44
2017-08-06T04:28:34.780Z,11.51
2017-08-06T04:29:35.394Z,11.48
2017-08-06T04:30:36.013Z,11.48
2017-08-06T04:31:36.633Z,11.50
2017-08-06T04:32:37.247Z,11.58
2017-08-06T04:33:37.859Z,11.59
2017-08-06T04:34:38.485Z,11.54
2017-08-06T04:35:39.090Z,11.65
2017-08-06T04:36:39.705Z,11.65
2017-08-06T04:37:40.305Z,11.65
2017-08-06T04:38:40.924Z,11.72
2017-08-06T04:39:41.540Z,11.62
2017-08-06T04:40:42.163Z,11.67
2017-08-06T04:41:42.782Z,11.76
2017-08-06T04:42:43.400Z,11.77
2017-08-06T04:43:44.009Z,11.81
2017-08-06T04:44:44.616Z,11.76
2017-08-06T04:45:45.244Z,11.81
2017-08-06T04:46:45.868Z,11.77
2017-08-06T04:47:46.500Z,11.87
2017-08-06T04:48:47.133Z,11.87
2017-08-06T04:49:47.744Z,11.93
2017-08-06T04:50:48.361Z,12.32
2017-08-06T04:51:48.981Z,12.57
2017-08-06T04:52:49.581Z,12.86
2017-08-06T04:53:50.190Z,12.87
2017-08-06T04:54:50.816Z,12.87
2017-08-06T04:55:51.432Z,12.98
2017-08-06T04:56:52.050Z,12.95
2017-08-06T04:57:52.674Z,13.04
2017-08-06T04:58:53.298Z,13.07
2017-08-06T04:59:53.910Z,13.10
2017-08-06T05:00:54.534Z,13.08
2017-08-06T05:01:55.156Z,13.01
2017-08-06T05:02:55.779Z,12.95
2017-08-06T05:03:56.383Z,12.97
2017-08-06T05:04:56.986Z,13.01
2017-08-06T05:05:57.599Z,13.08
2017-08-06T05:06:58.217Z,13.05
2017-08-06T05:07:58.825Z,13.16
2017-08-06T05:08:59.449Z,13.35
2017-08-06T05:10:00.054Z,13.77
2017-08-06T05:11:00.668Z,14.05
2017-08-06T05:12:01.290Z,14.18
2017-08-06T05:13:01.924Z,14.57
2017-08-06T05:14:02.558Z,15.00
2017-08-06T05:15:03.196Z,15.21
2017-08-06T05:16:03.796Z,15.37
2017-08-06T05:17:04.416Z,15.29
2017-08-06T05:18:05.034Z,15.47
2017-08-06T05:19:05.639Z,15.69
2017-08-06T05:20:06.270Z,16.02
2017-08-06T05:21:06.898Z,16.20
2017-08-06T05:22:07.539Z,16.45
2017-08-06T05:23:08.163Z,16.64
2017-08-06T05:24:08.789Z,17.00
2017-08-06T05:25:09.423Z,17.05
2017-08-06T05:26:10.044Z,17.19
2017-08-06T05:27:10.669Z,17.46
2017-08-06T05:28:11.290Z,17.48
2017-08-06T05:29:11.919Z,17.30
2017-08-06T05:30:12.548Z,17.01
2017-08-06T05:31:13.187Z,16.76
2017-08-06T05:32:13.793Z,16.54
2017-08-06T05:33:14.410Z,16.43
2017-08-06T05:34:15.036Z,16.68
2017-08-06T05:35:15.669Z,17.05
2017-08-06T05:36:16.294Z,17.41
2017-08-06T05:37:16.905Z,17.72
2017-08-06T05:38:17.532Z,18.12
2017-08-06T05:39:18.142Z,18.51
2017-08-06T05:40:18.758Z,18.84
2017-08-06T05:41:19.386Z,18.98
2017-08-06T05:42:20.001Z,19.34
2017-08-06T05:43:20.636Z,19.39
2017-08-06T05:44:21.273Z,19.14
2017-08-06T05:45:21.995Z,18.84
2017-08-06T05:46:22.625Z,18.69
2017-08-06T05:47:23.245Z,18.38
2017-08-06T05:48:23.871Z,18.63
2017-08-06T05:49:24.485Z,19.04
2017-08-06T05:50:25.132Z,19.39
2017-08-06T05:51:25.762Z,19.59
2017-08-06T05:52:26.385Z,19.89
2017-08-06T05:53:27.018Z,20.31
2017-08-06T05:54:27.652Z,20.55
2017-08-06T05:55:28.280Z,20.40
2017-08-06T05:56:28.899Z,20.42
2017-08-06T05:57:29.536Z,20.31
2017-08-06T05:58:30.153Z,20.13
2017-08-06T05:59:30.794Z,19.84
2017-08-06T06:00:31.438Z,19.64
2017-08-06T06:01:32.079Z,19.56
2017-08-06T06:02:32.727Z,19.79
2017-08-06T06:03:33.368Z,20.10
2017-08-06T06:04:34.002Z,20.34
2017-08-06T06:05:34.626Z,20.62
2017-08-06T06:06:35.245Z,20.67
2017-08-06T06:07:35.883Z,20.78
2017-08-06T06:08:36.518Z,20.90
2017-08-06T06:09:37.149Z,21.07
2017-08-06T06:10:37.772Z,21.07
2017-08-06T06:11:38.414Z,21.33
2017-08-06T06:12:39.054Z,21.75
2017-08-06T06:13:39.696Z,21.95
2017-08-06T06:14:40.332Z,21.89
2017-08-06T06:15:40.949Z,22.29
2017-08-06T06:16:41.583Z,22.38
2017-08-06T06:17:42.230Z,22.65
2017-08-06T06:18:42.859Z,22.66
2017-08-06T06:19:43.481Z,22.73
2017-08-06T06:20:44.121Z,22.69
2017-08-06T06:21:44.741Z,22.99
2017-08-06T06:22:45.380Z,23.27
2017-08-06T06:23:46.023Z,23.81
2017-08-06T06:24:46.647Z,23.72
2017-08-06T06:25:47.285Z,23.54
2017-08-06T06:26:47.893Z,23.68
2017-08-06T06:27:48.510Z,23.96
2017-08-06T06:28:49.149Z,23.84
2017-08-06T06:29:49.805Z,23.96
2017-08-06T06:30:50.430Z,23.86
2017-08-06T06:31:51.070Z,23.90
2017-08-06T06:32:51.711Z,24.14
2017-08-06T06:33:52.352Z,24.14
2017-08-06T06:34:52.997Z,24.42
2017-08-06T06:35:53.632Z,24.32
2017-08-06T06:36:54.277Z,24.38
2017-08-06T06:37:54.924Z,24.35
2017-08-06T06:38:55.571Z,24.56
2017-08-06T06:39:56.210Z,24.64
2017-08-06T06:40:56.842Z,24.46
2017-08-06T06:41:57.485Z,24.42
2017-08-06T06:42:58.121Z,24.31
2017-08-06T06:43:58.762Z,24.36
2017-08-06T06:44:59.413Z,24.51
2017-08-06T06:46:00.057Z,24.68
2017-08-06T06:47:00.678Z,24.81
2017-08-06T06:48:01.300Z,24.92
2017-08-06T06:49:01.929Z,25.02
2017-08-06T06:50:02.578Z,24.98
2017-08-06T06:51:03.225Z,24.99
2017-08-06T06:52:03.853Z,25.04
2017-08-06T06:53:04.506Z,25.14
2017-08-06T06:54:05.142Z,25.33
2017-08-06T06:55:05.828Z,25.14
2017-08-06T06:56:06.446Z,24.96
2017-08-06T06:57:07.086Z,24.98
2017-08-06T06:58:07.726Z,25.21
2017-08-06T06:59:08.350Z,25.71
2017-08-06T07:00:08.977Z,25.78
2017-08-06T07:01:09.617Z,25.71
2017-08-06T07:02:10.237Z,25.80
2017-08-06T07:03:10.865Z,25.93
2017-08-06T07:04:11.504Z,25.98
2017-08-06T07:05:12.172Z,26.21
2017-08-06T07:06:12.799Z,26.13
2017-08-06T07:07:13.427Z,26.02
2017-08-06T07:08:14.079Z,26.09
2017-08-06T07:09:14.713Z,26.46
2017-08-06T07:10:15.352Z,26.36
2017-08-06T07:11:15.984Z,26.55
2017-08-06T07:12:16.744Z,26.85
2017-08-06T07:13:17.339Z,27.18
2017-08-06T07:14:17.993Z,27.45
2017-08-06T07:15:18.652Z,27.29
2017-08-06T07:16:19.289Z,27.25
2017-08-06T07:17:19.934Z,27.17
2017-08-06T07:18:20.576Z,27.30
2017-08-06T07:19:21.213Z,26.88
2017-08-06T07:20:21.862Z,26.78
2017-08-06T07:21:22.508Z,26.78
2017-08-06T07:22:23.146Z,27.02
2017-08-06T07:23:23.774Z,27.02
2017-08-06T07:24:24.407Z,27.08
2017-08-06T07:25:25.030Z,27.29
2017-08-06T07:26:25.666Z,27.62
2017-08-06T07:27:26.304Z,27.08
2017-08-06T07:28:26.955Z,27.06
2017-08-06T07:29:27.599Z,27.17
2017-08-06T07:30:28.233Z,27.29
2017-08-06T07:31:28.854Z,27.43
2017-08-06T07:32:29.486Z,27.28
2017-08-06T07:33:30.128Z,27.51
2017-08-06T07:34:30.769Z,28.03
2017-08-06T07:35:31.409Z,28.20
2017-08-06T07:36:32.046Z,28.18
2017-08-06T07:37:32.678Z,28.20
2017-08-06T07:38:33.374Z,27.63
2017-08-06T07:39:34.012Z,27.24
2017-08-06T07:40:34.639Z,27.03
2017-08-06T07:41:35.275Z,27.11
2017-08-06T07:42:35.897Z,26.80
2017-08-06T07:43:36.554Z,26.87
2017-08-06T07:44:37.195Z,26.95
2017-08-06T07:45:37.839Z,26.95
2017-08-06T07:46:38.487Z,27.00
2017-08-06T07:47:39.130Z,27.32
2017-08-06T07:48:39.765Z,27.39
2017-08-06T07:49:40.393Z,27.54
2017-08-06T07:50:41.036Z,27.24
2017-08-06T07:51:41.681Z,27.35
2017-08-06T07:52:42.330Z,27.47
2017-08-06T07:53:42.967Z,27.59
2017-08-06T07:54:43.597Z,27.62
2017-08-06T07:55:44.247Z,27.66
2017-08-06T07:56:44.897Z,27.86
2017-08-06T07:57:45.553Z,27.96
2017-08-06T07:58:46.194Z,27.90
2017-08-06T07:59:46.838Z,27.78
2017-08-06T08:00:47.484Z,27.77
2017-08-06T08:01:48.115Z,27.68
2017-08-06T08:02:48.749Z,27.52
2017-08-06T08:03:49.378Z,27.28
2017-08-06T08:04:49.999Z,27.28
2017-08-06T08:05:50.636Z,27.59
2017-08-06T08:06:51.272Z,27.18
2017-08-06T08:07:51.905Z,26.39
2017-08-06T08:08:52.537Z,26.39
2017-08-06T08:09:53.167Z,26.43
2017-08-06T08:10:53.789Z,26.66
2017-08-06T08:11:54.419Z,26.55
2017-08-06T08:12:55.038Z,26.62
2017-08-06T08:13:55.679Z,27.00
2017-08-06T08:14:56.308Z,27.11
2017-08-06T08:15:56.934Z,27.23
2017-08-06T08:16:57.556Z,27.42
2017-08-06T08:17:58.187Z,27.50
2017-08-06T08:18:58.832Z,27.32
2017-08-06T08:19:59.469Z,27.18
2017-08-06T08:21:00.093Z,26.78
2017-08-06T08:22:00.730Z,26.87
2017-08-06T08:23:01.373Z,27.00
2017-08-06T08:24:02.023Z,27.10
2017-08-06T08:25:02.666Z,27.15
2017-08-06T08:26:03.304Z,27.05
2017-08-06T08:27:03.943Z,27.36
2017-08-06T08:28:04.557Z,27.59
2017-08-06T08:29:05.188Z,27.35
2017-08-06T08:30:05.808Z,26.91
2017-08-06T08:31:06.437Z,26.73
2017-08-06T08:32:07.065Z,26.98
2017-08-06T08:33:07.701Z,27.40
2017-08-06T08:34:08.346Z,27.74
2017-08-06T08:35:08.990Z,28.25
2017-08-06T08:36:09.628Z,28.40
2017-08-06T08:37:10.263Z,28.81
2017-08-06T08:38:10.891Z,29.17
2017-08-06T08:39:11.520Z,29.17
2017-08-06T08:40:12.169Z,29.13
2017-08-06T08:41:12.823Z,29.11
2017-08-06T08:42:13.471Z,29.26
2017-08-06T08:43:14.250Z,29.10
2017-08-06T08:44:14.873Z,28.84
2017-08-06T08:45:15.495Z,29.11
2017-08-06T08:46:16.125Z,29.38
2017-08-06T08:47:16.757Z,29.42
2017-08-06T08:48:17.401Z,29.25
2017-08-06T08:49:18.020Z,29.26
2017-08-06T08:50:18.663Z,29.04
2017-08-06T08:51:19.317Z,28.79
2017-08-06T08:52:19.968Z,28.94
2017-08-06T08:53:20.599Z,29.19
2017-08-06T08:54:21.235Z,29.20
2017-08-06T08:55:21.870Z,28.96
2017-08-06T08:56:22.508Z,29.15
2017-08-06T08:57:23.138Z,29.30
2017-08-06T08:58:23.782Z,29.27
2017-08-06T08:59:24.419Z,29.20
2017-08-06T09:00:25.061Z,29.34
2017-08-06T09:01:25.699Z,29.57
2017-08-06T09:02:26.470Z,29.60
2017-08-06T09:03:27.106Z,29.53
2017-08-06T09:04:27.733Z,29.67
2017-08-06T09:05:28.355Z,30.19
2017-08-06T09:06:28.991Z,30.44
2017-08-06T09:07:29.608Z,30.27
2017-08-06T09:08:30.242Z,30.24
2017-08-06T09:09:30.881Z,30.40
2017-08-06T09:10:31.518Z,30.56
2017-08-06T09:11:32.137Z,30.65
2017-08-06T09:12:32.771Z,30.65
2017-08-06T09:13:33.399Z,30.90
2017-08-06T09:14:34.032Z,30.95
2017-08-06T09:15:34.672Z,30.86
2017-08-06T09:16:35.300Z,30.37
2017-08-06T09:17:35.929Z,29.89
2017-08-06T09:18:36.571Z,29.79
2017-08-06T09:19:37.189Z,29.30
2017-08-06T09:20:37.817Z,28.96
2017-08-06T09:21:38.439Z,28.22
2017-08-06T09:22:39.082Z,27.96
2017-08-06T09:23:39.717Z,27.67
2017-08-06T09:24:40.352Z,27.35
2017-08-06T09:25:40.994Z,26.93
2017-08-06T09:26:41.629Z,27.06
2017-08-06T09:27:42.247Z,27.40
2017-08-06T09:28:42.890Z,27.45
2017-08-06T09:29:43.531Z,27.06
2017-08-06T09:30:44.184Z,26.41
2017-08-06T09:31:44.815Z,26.26
2017-08-06T09:32:45.448Z,27.02
2017-08-06T09:33:46.087Z,27.40
2017-08-06T09:34:46.724Z,27.55
2017-08-06T09:35:47.342Z,27.40
2017-08-06T09:36:47.960Z,27.43
2017-08-06T09:37:48.578Z,27.45
2017-08-06T09:38:49.198Z,27.17
2017-08-06T09:39:49.828Z,26.88
2017-08-06T09:40:50.467Z,26.41
2017-08-06T09:41:51.091Z,25.99
2017-08-06T09:42:51.744Z,25.66
2017-08-06T09:43:52.388Z,25.48
2017-08-06T09:44:53.007Z,25.65
2017-08-06T09:45:53.630Z,25.58
2017-08-06T09:46:54.265Z,25.46
2017-08-06T09:47:54.911Z,25.32
2017-08-06T09:48:55.547Z,25.35
2017-08-06T09:49:56.175Z,25.33
2017-08-06T09:50:56.845Z,25.66
2017-08-06T09:51:57.465Z,25.98
2017-08-06T09:52:58.095Z,26.16
2017-08-06T09:53:58.733Z,26.25
2017-08-06T09:54:59.358Z,26.28
2017-08-06T09:55:59.994Z,26.31
2017-08-06T09:57:00.621Z,26.34
2017-08-06T09:58:01.258Z,26.56
2017-08-06T09:59:01.912Z,26.48
2017-08-06T10:00:02.523Z,26.54
2017-08-06T10:01:03.152Z,26.81
2017-08-06T10:02:03.777Z,27.03
2017-08-06T10:03:04.405Z,27.33
2017-08-06T10:04:05.054Z,27.48
2017-08-06T10:05:05.690Z,28.05
2017-08-06T10:06:06.319Z,28.33
2017-08-06T10:07:06.950Z,28.30
2017-08-06T10:08:07.606Z,28.30
2017-08-06T10:09:08.243Z,28.08
2017-08-06T10:10:08.873Z,28.14
2017-08-06T10:11:09.501Z,27.98
2017-08-06T10:12:10.122Z,27.70
2017-08-06T10:13:10.760Z,27.83
2017-08-06T10:14:11.391Z,28.13
2017-08-06T10:15:12.018Z,28.20
2017-08-06T10:16:12.665Z,28.15
2017-08-06T10:17:13.301Z,27.93
2017-08-06T10:18:13.935Z,27.62
2017-08-06T10:19:14.571Z,27.10
2017-08-06T10:20:15.214Z,26.98
2017-08-06T10:21:15.846Z,26.73
2017-08-06T10:22:16.490Z,26.58
2017-08-06T10:23:17.129Z,26.93
2017-08-06T10:24:17.774Z,26.98
2017-08-06T10:25:18.390Z,27.24
2017-08-06T10:26:19.025Z,27.45
2017-08-06T10:27:19.652Z,27.59
2017-08-06T10:28:20.285Z,27.67
2017-08-06T10:29:20.924Z,27.80
2017-08-06T10:30:21.564Z,27.70
2017-08-06T10:31:22.198Z,27.52
2017-08-06T10:32:22.831Z,27.50
2017-08-06T10:33:23.458Z,27.05
2017-08-06T10:34:24.098Z,26.71
2017-08-06T10:35:24.744Z,26.69
2017-08-06T10:36:25.390Z,26.54
2017-08-06T10:37:26.026Z,26.71
2017-08-06T10:38:26.650Z,27.02
2017-08-06T10:39:27.285Z,27.15
2017-08-06T10:40:27.910Z,27.39
2017-08-06T10:41:28.539Z,27.51
2017-08-06T10:42:29.171Z,27.45
2017-08-06T10:43:29.808Z,27.62
2017-08-06T10:44:30.425Z,27.61
2017-08-06T10:45:31.043Z,27.67
2017-08-06T10:46:31.672Z,27.63
2017-08-06T10:47:32.301Z,27.48
2017-08-06T10:48:32.931Z,27.54
2017-08-06T10:49:33.558Z,27.45
2017-08-06T10:50:34.177Z,27.23
2017-08-06T10:51:34.807Z,26.87
2017-08-06T10:52:35.450Z,26.96
2017-08-06T10:53:36.076Z,27.28
2017-08-06T10:54:36.721Z,27.55
2017-08-06T10:55:37.344Z,27.98
2017-08-06T10:56:37.982Z,28.15
2017-08-06T10:57:38.633Z,28.20
2017-08-06T10:58:39.279Z,27.95
2017-08-06T10:59:39.918Z,27.81
2017-08-06T11:00:40.543Z,27.66
2017-08-06T11:01:41.163Z,27.74
2017-08-06T11:02:41.803Z,27.95
2017-08-06T11:03:42.434Z,28.04
2017-08-06T11:04:43.067Z,28.13
2017-08-06T11:05:43.698Z,28.08
2017-08-06T11:06:44.349Z,28.22
2017-08-06T11:07:44.988Z,28.41
2017-08-06T11:08:45.618Z,28.75
2017-08-06T11:09:46.242Z,29.04
2017-08-06T11:10:46.876Z,28.92
2017-08-06T11:11:47.518Z,28.52
2017-08-06T11:12:48.154Z,28.78
2017-08-06T11:13:48.798Z,29.15
2017-08-06T11:14:49.440Z,29.25
2017-08-06T11:15:50.091Z,29.37
2017-08-06T11:16:50.713Z,29.56
2017-08-06T11:17:51.345Z,29.67
2017-08-06T11:18:51.973Z,29.71
2017-08-06T11:19:52.614Z,29.67
2017-08-06T11:20:53.274Z,29.75
2017-08-06T11:21:53.909Z,29.82
2017-08-06T11:22:54.520Z,29.75
2017-08-06T11:23:55.157Z,29.56
2017-08-06T11:24:55.794Z,29.41
2017-08-06T11:25:56.423Z,29.16
2017-08-06T11:26:57.049Z,28.79
2017-08-06T11:27:57.700Z,28.91
2017-08-06T11:28:58.335Z,29.38
2017-08-06T11:29:58.967Z,29.63
2017-08-06T11:30:59.606Z,29.94
2017-08-06T11:32:00.249Z,30.03
2017-08-06T11:33:00.868Z,30.15
2017-08-06T11:34:01.503Z,30.30
2017-08-06T11:35:02.156Z,30.75
2017-08-06T11:36:02.791Z,30.86
2017-08-06T11:37:03.408Z,30.57
2017-08-06T11:38:04.042Z,30.37
2017-08-06T11:39:04.668Z,29.87
2017-08-06T11:40:05.302Z,29.39
2017-08-06T11:41:05.933Z,29.20
2017-08-06T11:42:06.553Z,29.44
2017-08-06T11:43:07.184Z,29.42
2017-08-06T11:44:07.819Z,29.20
2017-08-06T11:45:08.451Z,29.07
2017-08-06T11:46:09.079Z,28.72
2017-08-06T11:47:09.721Z,28.42
2017-08-06T11:48:10.352Z,28.27
2017-08-06T11:49:10.977Z,28.27
2017-08-06T11:50:11.604Z,28.69
2017-08-06T11:51:12.232Z,29.11
2017-08-06T11:52:12.861Z,29.34
2017-08-06T11:53:13.490Z,29.54
2017-08-06T11:54:14.126Z,29.89
2017-08-06T11:55:14.746Z,29.90
2017-08-06T11:56:15.382Z,29.89
2017-08-06T11:57:16.020Z,30.08
2017-08-06T11:58:16.657Z,30.08
2017-08-06T11:59:17.288Z,30.09
2017-08-06T12:00:17.919Z,30.50
2017-08-06T12:01:18.539Z,30.81
2017-08-06T12:02:19.166Z,30.80
2017-08-06T12:03:19.814Z,30.84
2017-08-06T12:04:20.445Z,31.40
2017-08-06T12:05:21.081Z,31.64
2017-08-06T12:06:21.703Z,31.74
2017-08-06T12:07:22.334Z,31.67
2017-08-06T12:08:22.965Z,31.84
2017-08-06T12:09:23.594Z,32.22
2017-08-06T12:10:24.233Z,31.92
2017-08-06T12:11:24.856Z,31.97
2017-08-06T12:12:25.486Z,32.21
2017-08-06T12:13:26.128Z,32.54
2017-08-06T12:14:26.788Z,32.48
2017-08-06T12:15:27.431Z,32.37
2017-08-06T12:16:28.051Z,32.10
2017-08-06T12:17:28.681Z,32.07
2017-08-06T12:18:29.332Z,31.99
2017-08-06T12:19:29.951Z,32.24
2017-08-06T12:20:30.583Z,32.55
2017-08-06T12:21:31.210Z,32.59
2017-08-06T12:22:31.829Z,32.61
2017-08-06T12:23:32.462Z,32.74
2017-08-06T12:24:33.101Z,32.99
2017-08-06T12:25:33.751Z,32.88
2017-08-06T12:26:34.407Z,32.43
2017-08-06T12:27:35.055Z,32.30
2017-08-06T12:28:35.680Z,32.61
2017-08-06T12:29:36.318Z,32.62
2017-08-06T12:30:36.937Z,32.67
2017-08-06T12:31:37.568Z,32.77
2017-08-06T12:32:38.211Z,32.70
2017-08-06T12:33:38.878Z,32.66
2017-08-06T12:34:39.492Z,32.49
2017-08-06T12:35:40.147Z,32.12
2017-08-06T12:36:40.870Z,32.12
2017-08-06T12:37:41.413Z,32.17
2017-08-06T12:38:42.041Z,32.19
2017-08-06T12:39:42.670Z,32.11
2017-08-06T12:40:43.303Z,32.14
2017-08-06T12:41:43.937Z,32.05
2017-08-06T12:42:44.570Z,32.39
2017-08-06T12:43:45.198Z,32.44
2017-08-06T12:44:45.831Z,32.55
2017-08-06T12:45:46.471Z,32.33
2017-08-06T12:46:47.108Z,32.30
2017-08-06T12:47:47.737Z,32.19
2017-08-06T12:48:48.382Z,32.40
2017-08-06T12:49:49.024Z,32.61
2017-08-06T12:50:49.642Z,32.76
2017-08-06T12:51:50.263Z,32.98
2017-08-06T12:52:50.904Z,32.55
2017-08-06T12:53:51.556Z,32.66
2017-08-06T12:54:52.194Z,32.69
2017-08-06T12:55:52.831Z,33.14
2017-08-06T12:56:53.487Z,33.23
2017-08-06T12:57:54.114Z,33.33
2017-08-06T12:58:54.765Z,33.38
2017-08-06T12:59:55.408Z,33.41
2017-08-06T13:00:56.047Z,33.38